Eros, Louisiana
Current Conditions -  °F | °C
As of 8:35 AM on Thursday 29 Jan 2015 (Local Time) from KRSN Reporting Station
Overcast Overcast  
Wind Chill: 55°   Ceiling: 700
Heat Index: 55°   Visibility: 10mi
Dew Point: 55°   Wind: 9mph
Humidity: 100%   Direction: 230°SW
Pressure: 30.21"   Gusts: NA
Location:  32.39°N, 92.42°W
Report Text: KRSN 291435Z AUTO 23008KT 10SM OVC007 13/13 A3021 RMK AO2 T01260126
Loading
Personal Weather Stations






























Interactive Weather Map New forecast layout! Learn more

10-Day Weather Forecast

Advertisements
Track Severe Weather on mobile